sensor_id;sensor_type;location;lat;lon;timestamp;pressure;altitude;pressure_sealevel;temperature;humidity
64610;BME280;51019;46.090;6.350;2024-02-15T00:00:18;97125.00;;;3.80;100.00
64610;BME280;51019;46.090;6.350;2024-02-15T00:02:45;97152.38;;;3.99;100.00
64610;BME280;51019;46.090;6.350;2024-02-15T00:05:12;97116.69;;;3.59;100.00
64610;BME280;51019;46.090;6.350;2024-02-15T00:07:40;97049.59;;;3.23;100.00
64610;BME280;51019;46.090;6.350;2024-02-15T00:10:08;97133.97;;;3.58;100.00
64610;BME280;51019;46.090;6.350;2024-02-15T00:12:35;97052.19;;;2.91;100.00
64610;BME280;51019;46.090;6.350;2024-02-15T00:15:05;97157.25;;;3.90;100.00
64610;BME280;51019;46.090;6.350;2024-02-15T00:17:33;97138.13;;;3.77;100.00
64610;BME280;51019;46.090;6.350;2024-02-15T00:20:01;97154.44;;;3.79;100.00
64610;BME280;51019;46.090;6.350;2024-02-15T00:22:30;97156.44;;;3.74;100.00
64610;BME280;51019;46.090;6.350;2024-02-15T00:24:58;97154.59;;;3.76;100.00
64610;BME280;51019;46.090;6.350;2024-02-15T00:27:25;97157.31;;;4.04;100.00
64610;BME280;51019;46.090;6.350;2024-02-15T00:29:52;97152.88;;;3.60;100.00
64610;BME280;51019;46.090;6.350;2024-02-15T00:32:21;97149.09;;;3.82;100.00
64610;BME280;51019;46.090;6.350;2024-02-15T00:34:48;97136.16;;;3.35;100.00
64610;BME280;51019;46.090;6.350;2024-02-15T00:37:15;97150.59;;;3.54;100.00
64610;BME280;51019;46.090;6.350;2024-02-15T00:39:43;97143.00;;;3.51;100.00
64610;BME280;51019;46.090;6.350;2024-02-15T00:42:10;97141.25;;;3.20;100.00
64610;BME280;51019;46.090;6.350;2024-02-15T00:44:39;97152.13;;;3.43;100.00
64610;BME280;51019;46.090;6.350;2024-02-15T00:47:06;97080.25;;;3.46;100.00
64610;BME280;51019;46.090;6.350;2024-02-15T00:49:36;97065.38;;;3.34;100.00
64610;BME280;51019;46.090;6.350;2024-02-15T00:52:03;97125.41;;;3.26;100.00
64610;BME280;51019;46.090;6.350;2024-02-15T00:54:31;97061.78;;;2.89;100.00
64610;BME280;51019;46.090;6.350;2024-02-15T00:57:00;97055.69;;;2.90;100.00
64610;BME280;51019;46.090;6.350;2024-02-15T00:59:30;97150.78;;;3.04;100.00
64610;BME280;51019;46.090;6.350;2024-02-15T01:02:01;97129.13;;;3.52;100.00
64610;BME280;51019;46.090;6.350;2024-02-15T01:04:28;97130.03;;;3.51;100.00
64610;BME280;51019;46.090;6.350;2024-02-15T01:06:57;97136.91;;;3.37;100.00
64610;BME280;51019;46.090;6.350;2024-02-15T01:09:24;97084.25;;;3.36;100.00
64610;BME280;51019;46.090;6.350;2024-02-15T01:11:51;97012.34;;;2.78;100.00
64610;BME280;51019;46.090;6.350;2024-02-15T01:14:20;97129.47;;;3.46;100.00
64610;BME280;51019;46.090;6.350;2024-02-15T01:16:47;97081.84;;;3.02;100.00
64610;BME280;51019;46.090;6.350;2024-02-15T01:19:14;97160.75;;;3.59;100.00
64610;BME280;51019;46.090;6.350;2024-02-15T01:21:41;97164.56;;;3.52;100.00
64610;BME280;51019;46.090;6.350;2024-02-15T01:24:11;97165.22;;;3.40;100.00
64610;BME280;51019;46.090;6.350;2024-02-15T01:26:38;97108.22;;;3.08;100.00
64610;BME280;51019;46.090;6.350;2024-02-15T01:29:05;97083.56;;;2.85;100.00
64610;BME280;51019;46.090;6.350;2024-02-15T01:31:33;97121.44;;;3.19;100.00
64610;BME280;51019;46.090;6.350;2024-02-15T01:34:00;97127.81;;;3.14;100.00
64610;BME280;51019;46.090;6.350;2024-02-15T01:36:27;97124.03;;;3.19;100.00
64610;BME280;51019;46.090;6.350;2024-02-15T01:38:54;97069.56;;;2.89;100.00
64610;BME280;51019;46.090;6.350;2024-02-15T01:41:23;97092.97;;;3.04;100.00
64610;BME280;51019;46.090;6.350;2024-02-15T01:43:50;97132.38;;;3.09;100.00
64610;BME280;51019;46.090;6.350;2024-02-15T01:46:18;97130.47;;;3.12;100.00
64610;BME280;51019;46.090;6.350;2024-02-15T01:48:46;97148.78;;;3.25;100.00
64610;BME280;51019;46.090;6.350;2024-02-15T01:51:14;97124.97;;;3.03;100.00
64610;BME280;51019;46.090;6.350;2024-02-15T01:53:43;97014.53;;;2.37;100.00
64610;BME280;51019;46.090;6.350;2024-02-15T01:56:13;97079.09;;;3.05;100.00
64610;BME280;51019;46.090;6.350;2024-02-15T01:58:45;97136.66;;;3.25;100.00
64610;BME280;51019;46.090;6.350;2024-02-15T02:01:15;97015.94;;;2.76;100.00
64610;BME280;51019;46.090;6.350;2024-02-15T02:03:42;97124.38;;;3.60;100.00
64610;BME280;51019;46.090;6.350;2024-02-15T02:06:09;97110.09;;;3.22;100.00
64610;BME280;51019;46.090;6.350;2024-02-15T02:08:37;97123.03;;;3.22;100.00
64610;BME280;51019;46.090;6.350;2024-02-15T02:11:05;97121.44;;;3.04;100.00
64610;BME280;51019;46.090;6.350;2024-02-15T02:13:34;97121.59;;;3.01;100.00
64610;BME280;51019;46.090;6.350;2024-02-15T02:16:04;97105.06;;;3.03;100.00
64610;BME280;51019;46.090;6.350;2024-02-15T02:18:32;97101.38;;;2.91;100.00
64610;BME280;51019;46.090;6.350;2024-02-15T02:21:01;97120.53;;;3.05;100.00
64610;BME280;51019;46.090;6.350;2024-02-15T02:23:31;97116.44;;;3.01;100.00
64610;BME280;51019;46.090;6.350;2024-02-15T02:26:00;96965.41;;;2.22;100.00
64610;BME280;51019;46.090;6.350;2024-02-15T02:28:29;97110.88;;;2.75;100.00
64610;BME280;51019;46.090;6.350;2024-02-15T02:30:58;97050.22;;;2.64;100.00
64610;BME280;51019;46.090;6.350;2024-02-15T02:33:24;97108.81;;;2.98;100.00
64610;BME280;51019;46.090;6.350;2024-02-15T02:35:55;97118.47;;;2.78;100.00
64610;BME280;51019;46.090;6.350;2024-02-15T02:38:23;97085.75;;;2.77;100.00
64610;BME280;51019;46.090;6.350;2024-02-15T02:40:51;97011.81;;;2.40;100.00
64610;BME280;51019;46.090;6.350;2024-02-15T02:43:21;97103.13;;;3.07;100.00
64610;BME280;51019;46.090;6.350;2024-02-15T02:45:48;97096.25;;;2.74;100.00
64610;BME280;51019;46.090;6.350;2024-02-15T02:48:15;97071.59;;;2.51;100.00
64610;BME280;51019;46.090;6.350;2024-02-15T02:50:44;97081.34;;;2.79;100.00
64610;BME280;51019;46.090;6.350;2024-02-15T02:53:11;97046.00;;;2.78;100.00
64610;BME280;51019;46.090;6.350;2024-02-15T02:55:40;97076.72;;;2.84;100.00
64610;BME280;51019;46.090;6.350;2024-02-15T02:58:08;97067.97;;;2.38;100.00
64610;BME280;51019;46.090;6.350;2024-02-15T03:00:37;97065.50;;;2.52;100.00
64610;BME280;51019;46.090;6.350;2024-02-15T03:03:05;97094.22;;;2.48;100.00
64610;BME280;51019;46.090;6.350;2024-02-15T03:05:33;97103.59;;;2.66;100.00
64610;BME280;51019;46.090;6.350;2024-02-15T03:08:00;97108.28;;;2.75;100.00
64610;BME280;51019;46.090;6.350;2024-02-15T03:10:26;97109.03;;;2.77;100.00
64610;BME280;51019;46.090;6.350;2024-02-15T03:12:53;97119.13;;;2.66;100.00
64610;BME280;51019;46.090;6.350;2024-02-15T03:15:21;96995.03;;;2.32;100.00
64610;BME280;51019;46.090;6.350;2024-02-15T03:17:50;96999.66;;;2.09;100.00
64610;BME280;51019;46.090;6.350;2024-02-15T03:20:18;97107.78;;;2.84;100.00
64610;BME280;51019;46.090;6.350;2024-02-15T03:22:53;97113.31;;;2.78;100.00
64610;BME280;51019;46.090;6.350;2024-02-15T03:25:21;97005.44;;;1.97;100.00
64610;BME280;51019;46.090;6.350;2024-02-15T03:27:49;97089.56;;;2.37;100.00
64610;BME280;51019;46.090;6.350;2024-02-15T03:30:17;97111.91;;;2.55;100.00
64610;BME280;51019;46.090;6.350;2024-02-15T03:32:45;97107.75;;;3.02;100.00
64610;BME280;51019;46.090;6.350;2024-02-15T03:35:15;97040.41;;;2.22;100.00
64610;BME280;51019;46.090;6.350;2024-02-15T03:37:43;97004.09;;;1.90;100.00
64610;BME280;51019;46.090;6.350;2024-02-15T03:40:10;97100.84;;;2.36;100.00
64610;BME280;51019;46.090;6.350;2024-02-15T03:42:40;97124.94;;;2.54;100.00
64610;BME280;51019;46.090;6.350;2024-02-15T03:45:08;97135.63;;;2.31;100.00
64610;BME280;51019;46.090;6.350;2024-02-15T03:47:37;97139.25;;;2.27;100.00
64610;BME280;51019;46.090;6.350;2024-02-15T03:50:05;97113.16;;;2.31;100.00
64610;BME280;51019;46.090;6.350;2024-02-15T03:52:37;97142.97;;;2.38;100.00
64610;BME280;51019;46.090;6.350;2024-02-15T03:55:05;97144.06;;;2.17;100.00
64610;BME280;51019;46.090;6.350;2024-02-15T03:57:33;97131.97;;;2.35;100.00
64610;BME280;51019;46.090;6.350;2024-02-15T04:00:00;97126.25;;;2.45;100.00
64610;BME280;51019;46.090;6.350;2024-02-15T04:02:30;97115.13;;;2.26;100.00
64610;BME280;51019;46.090;6.350;2024-02-15T04:04:59;97126.59;;;2.55;100.00
64610;BME280;51019;46.090;6.350;2024-02-15T04:07:26;97024.53;;;1.60;100.00
64610;BME280;51019;46.090;6.350;2024-02-15T04:09:57;97009.56;;;1.50;100.00
64610;BME280;51019;46.090;6.350;2024-02-15T04:12:24;97083.16;;;1.94;100.00
64610;BME280;51019;46.090;6.350;2024-02-15T04:14:54;97119.50;;;2.26;100.00
64610;BME280;51019;46.090;6.350;2024-02-15T04:17:26;97130.06;;;2.04;100.00
64610;BME280;51019;46.090;6.350;2024-02-15T04:19:53;97109.00;;;2.11;100.00
64610;BME280;51019;46.090;6.350;2024-02-15T04:22:20;97108.25;;;2.09;100.00
64610;BME280;51019;46.090;6.350;2024-02-15T04:24:49;97125.59;;;2.07;100.00
64610;BME280;51019;46.090;6.350;2024-02-15T04:27:19;97078.53;;;1.66;100.00
64610;BME280;51019;46.090;6.350;2024-02-15T04:29:46;97116.16;;;1.89;100.00
64610;BME280;51019;46.090;6.350;2024-02-15T04:32:15;97079.19;;;1.70;100.00
64610;BME280;51019;46.090;6.350;2024-02-15T04:34:44;97091.06;;;1.91;100.00
64610;BME280;51019;46.090;6.350;2024-02-15T04:37:13;97101.47;;;2.07;100.00
64610;BME280;51019;46.090;6.350;2024-02-15T04:39:43;97124.56;;;2.27;100.00
64610;BME280;51019;46.090;6.350;2024-02-15T04:42:11;97106.06;;;2.02;100.00
64610;BME280;51019;46.090;6.350;2024-02-15T04:44:44;97107.88;;;2.00;100.00
64610;BME280;51019;46.090;6.350;2024-02-15T04:47:11;97100.09;;;1.82;100.00
64610;BME280;51019;46.090;6.350;2024-02-15T04:49:39;97083.69;;;2.01;100.00
64610;BME280;51019;46.090;6.350;2024-02-15T04:52:07;97089.31;;;2.09;100.00
64610;BME280;51019;46.090;6.350;2024-02-15T04:54:34;97007.66;;;1.01;100.00
64610;BME280;51019;46.090;6.350;2024-02-15T04:57:02;97075.25;;;1.63;100.00
64610;BME280;51019;46.090;6.350;2024-02-15T04:59:29;97090.16;;;1.75;100.00
64610;BME280;51019;46.090;6.350;2024-02-15T05:01:58;97097.53;;;1.82;100.00
64610;BME280;51019;46.090;6.350;2024-02-15T05:04:25;97069.41;;;1.76;100.00
64610;BME280;51019;46.090;6.350;2024-02-15T05:06:53;97056.31;;;1.62;100.00
64610;BME280;51019;46.090;6.350;2024-02-15T05:09:21;97043.94;;;1.52;100.00
64610;BME280;51019;46.090;6.350;2024-02-15T05:11:49;97013.66;;;1.36;100.00
64610;BME280;51019;46.090;6.350;2024-02-15T05:14:17;97052.81;;;1.63;100.00
64610;BME280;51019;46.090;6.350;2024-02-15T05:16:45;97090.47;;;1.86;100.00
64610;BME280;51019;46.090;6.350;2024-02-15T05:19:15;97095.31;;;1.92;100.00
64610;BME280;51019;46.090;6.350;2024-02-15T05:21:43;97103.34;;;1.52;100.00
64610;BME280;51019;46.090;6.350;2024-02-15T05:24:12;97072.53;;;1.66;100.00
64610;BME280;51019;46.090;6.350;2024-02-15T05:26:41;97100.88;;;1.85;100.00
64610;BME280;51019;46.090;6.350;2024-02-15T05:29:10;97064.13;;;1.61;100.00
64610;BME280;51019;46.090;6.350;2024-02-15T05:31:37;97014.31;;;1.05;100.00
64610;BME280;51019;46.090;6.350;2024-02-15T05:34:06;96980.25;;;0.80;100.00
64610;BME280;51019;46.090;6.350;2024-02-15T05:36:39;97088.41;;;1.75;100.00
64610;BME280;51019;46.090;6.350;2024-02-15T05:39:06;97080.03;;;1.53;100.00
64610;BME280;51019;46.090;6.350;2024-02-15T05:41:37;97074.13;;;1.68;100.00
64610;BME280;51019;46.090;6.350;2024-02-15T05:44:05;97069.50;;;1.39;100.00
64610;BME280;51019;46.090;6.350;2024-02-15T05:46:34;97062.31;;;1.63;100.00
64610;BME280;51019;46.090;6.350;2024-02-15T05:49:04;97057.53;;;1.72;100.00
64610;BME280;51019;46.090;6.350;2024-02-15T05:51:31;97055.56;;;1.77;100.00
64610;BME280;51019;46.090;6.350;2024-02-15T05:54:01;97039.50;;;1.36;100.00
64610;BME280;51019;46.090;6.350;2024-02-15T05:56:28;97021.44;;;1.88;100.00
64610;BME280;51019;46.090;6.350;2024-02-15T05:58:55;96932.97;;;0.80;100.00
64610;BME280;51019;46.090;6.350;2024-02-15T06:01:23;97057.00;;;2.00;100.00
64610;BME280;51019;46.090;6.350;2024-02-15T06:03:50;97057.84;;;1.83;100.00
64610;BME280;51019;46.090;6.350;2024-02-15T06:06:20;97025.47;;;1.59;100.00
64610;BME280;51019;46.090;6.350;2024-02-15T06:08:47;96903.31;;;1.05;100.00
64610;BME280;51019;46.090;6.350;2024-02-15T06:11:19;97051.06;;;1.81;100.00
64610;BME280;51019;46.090;6.350;2024-02-15T06:13:47;97023.94;;;1.90;100.00
64610;BME280;51019;46.090;6.350;2024-02-15T06:16:14;97046.34;;;2.06;100.00
64610;BME280;51019;46.090;6.350;2024-02-15T06:18:41;97010.13;;;2.06;100.00
64610;BME280;51019;46.090;6.350;2024-02-15T06:21:08;96967.94;;;1.73;100.00
64610;BME280;51019;46.090;6.350;2024-02-15T06:23:37;97026.94;;;2.15;100.00
64610;BME280;51019;46.090;6.350;2024-02-15T06:26:04;97018.78;;;2.23;100.00
64610;BME280;51019;46.090;6.350;2024-02-15T06:28:33;96955.03;;;1.56;100.00
64610;BME280;51019;46.090;6.350;2024-02-15T06:31:18;96989.09;;;2.30;100.00
64610;BME280;51019;46.090;6.350;2024-02-15T06:34:02;97022.41;;;2.51;100.00
64610;BME280;51019;46.090;6.350;2024-02-15T06:36:48;97010.25;;;2.53;100.00
64610;BME280;51019;46.090;6.350;2024-02-15T06:39:36;97006.69;;;2.23;100.00
64610;BME280;51019;46.090;6.350;2024-02-15T06:42:07;96998.31;;;2.18;100.00
64610;BME280;51019;46.090;6.350;2024-02-15T06:44:38;97010.66;;;2.46;100.00
64610;BME280;51019;46.090;6.350;2024-02-15T06:47:06;97005.66;;;2.59;100.00
64610;BME280;51019;46.090;6.350;2024-02-15T06:49:35;96999.84;;;2.38;100.00
64610;BME280;51019;46.090;6.350;2024-02-15T06:52:02;96992.53;;;2.62;100.00
64610;BME280;51019;46.090;6.350;2024-02-15T06:54:29;96926.22;;;1.80;100.00
64610;BME280;51019;46.090;6.350;2024-02-15T06:56:56;96864.44;;;1.59;100.00
64610;BME280;51019;46.090;6.350;2024-02-15T06:59:23;96985.00;;;2.26;100.00
64610;BME280;51019;46.090;6.350;2024-02-15T07:01:52;96966.16;;;2.39;100.00
64610;BME280;51019;46.090;6.350;2024-02-15T07:04:20;96988.25;;;1.96;100.00
64610;BME280;51019;46.090;6.350;2024-02-15T07:06:51;96990.63;;;2.65;100.00
64610;BME280;51019;46.090;6.350;2024-02-15T07:09:20;97001.00;;;2.16;100.00
64610;BME280;51019;46.090;6.350;2024-02-15T07:11:50;96992.06;;;2.71;100.00
64610;BME280;51019;46.090;6.350;2024-02-15T07:14:17;96877.63;;;2.03;100.00
64610;BME280;51019;46.090;6.350;2024-02-15T07:16:45;96985.72;;;2.92;100.00
64610;BME280;51019;46.090;6.350;2024-02-15T07:19:17;97000.06;;;2.98;100.00
64610;BME280;51019;46.090;6.350;2024-02-15T07:21:46;97003.28;;;3.17;100.00
64610;BME280;51019;46.090;6.350;2024-02-15T07:24:13;97002.00;;;3.40;100.00
64610;BME280;51019;46.090;6.350;2024-02-15T07:26:41;96996.47;;;3.16;100.00
64610;BME280;51019;46.090;6.350;2024-02-15T07:29:08;96967.47;;;3.09;100.00
64610;BME280;51019;46.090;6.350;2024-02-15T07:31:36;96961.44;;;3.24;100.00
64610;BME280;51019;46.090;6.350;2024-02-15T07:34:04;97011.28;;;3.44;100.00
64610;BME280;51019;46.090;6.350;2024-02-15T07:36:33;96997.16;;;4.22;100.00
64610;BME280;51019;46.090;6.350;2024-02-15T07:39:01;96994.69;;;3.76;100.00
64610;BME280;51019;46.090;6.350;2024-02-15T07:41:29;96955.09;;;3.44;100.00
64610;BME280;51019;46.090;6.350;2024-02-15T07:43:58;96962.41;;;3.82;100.00
64610;BME280;51019;46.090;6.350;2024-02-15T07:46:26;97006.69;;;4.21;100.00
64610;BME280;51019;46.090;6.350;2024-02-15T07:48:53;97012.91;;;4.19;100.00
64610;BME280;51019;46.090;6.350;2024-02-15T07:51:21;96900.81;;;3.13;100.00
64610;BME280;51019;46.090;6.350;2024-02-15T07:53:51;97003.81;;;4.12;100.00
64610;BME280;51019;46.090;6.350;2024-02-15T07:56:18;96957.00;;;3.85;100.00
64610;BME280;51019;46.090;6.350;2024-02-15T07:58:48;96948.34;;;4.14;100.00
64610;BME280;51019;46.090;6.350;2024-02-15T08:01:17;96994.00;;;4.31;100.00
64610;BME280;51019;46.090;6.350;2024-02-15T08:03:46;97010.34;;;4.88;100.00
64610;BME280;51019;46.090;6.350;2024-02-15T08:06:15;97012.44;;;5.37;100.00
64610;BME280;51019;46.090;6.350;2024-02-15T08:08:43;97022.50;;;5.29;100.00
64610;BME280;51019;46.090;6.350;2024-02-15T08:11:13;97019.97;;;5.54;100.00
64610;BME280;51019;46.090;6.350;2024-02-15T08:13:43;97022.09;;;6.27;100.00
64610;BME280;51019;46.090;6.350;2024-02-15T08:16:11;97008.69;;;6.20;100.00
64610;BME280;51019;46.090;6.350;2024-02-15T08:18:41;97017.06;;;6.74;100.00
64610;BME280;51019;46.090;6.350;2024-02-15T08:21:09;97024.41;;;6.93;100.00
64610;BME280;51019;46.090;6.350;2024-02-15T08:23:38;97019.25;;;7.41;100.00
64610;BME280;51019;46.090;6.350;2024-02-15T08:26:06;96981.94;;;7.51;100.00
64610;BME280;51019;46.090;6.350;2024-02-15T08:28:34;97015.69;;;7.65;100.00
64610;BME280;51019;46.090;6.350;2024-02-15T08:31:03;97010.28;;;7.91;100.00
64610;BME280;51019;46.090;6.350;2024-02-15T08:33:30;97011.94;;;7.57;100.00
64610;BME280;51019;46.090;6.350;2024-02-15T08:35:57;96912.28;;;7.76;100.00
64610;BME280;51019;46.090;6.350;2024-02-15T08:38:27;96973.97;;;8.34;100.00
64610;BME280;51019;46.090;6.350;2024-02-15T08:40:54;97006.41;;;7.96;100.00
64610;BME280;51019;46.090;6.350;2024-02-15T08:43:21;96986.25;;;7.63;100.00
64610;BME280;51019;46.090;6.350;2024-02-15T08:45:50;96982.31;;;7.93;100.00
64610;BME280;51019;46.090;6.350;2024-02-15T08:48:18;96978.75;;;8.05;100.00
64610;BME280;51019;46.090;6.350;2024-02-15T08:50:48;96978.59;;;8.42;100.00
64610;BME280;51019;46.090;6.350;2024-02-15T08:53:15;96917.00;;;7.59;100.00
64610;BME280;51019;46.090;6.350;2024-02-15T08:55:44;96817.97;;;7.47;100.00
64610;BME280;51019;46.090;6.350;2024-02-15T08:58:11;96957.53;;;8.99;100.00
64610;BME280;51019;46.090;6.350;2024-02-15T09:00:39;96940.75;;;9.65;100.00
64610;BME280;51019;46.090;6.350;2024-02-15T09:03:11;96948.84;;;9.62;100.00
64610;BME280;51019;46.090;6.350;2024-02-15T09:05:39;96885.53;;;8.95;100.00
64610;BME280;51019;46.090;6.350;2024-02-15T09:08:08;96922.00;;;9.28;100.00
64610;BME280;51019;46.090;6.350;2024-02-15T09:10:35;96921.78;;;10.14;100.00
64610;BME280;51019;46.090;6.350;2024-02-15T09:13:07;96939.09;;;10.27;100.00
64610;BME280;51019;46.090;6.350;2024-02-15T09:15:34;96916.84;;;9.70;100.00
64610;BME280;51019;46.090;6.350;2024-02-15T09:18:02;96949.94;;;10.52;100.00
64610;BME280;51019;46.090;6.350;2024-02-15T09:20:31;96948.91;;;10.74;100.00
64610;BME280;51019;46.090;6.350;2024-02-15T09:22:58;96952.34;;;11.15;98.26
64610;BME280;51019;46.090;6.350;2024-02-15T09:25:32;96965.34;;;11.45;94.51
64610;BME280;51019;46.090;6.350;2024-02-15T09:27:59;96950.84;;;11.41;96.33
64610;BME280;51019;46.090;6.350;2024-02-15T09:30:26;96951.13;;;10.39;100.00
64610;BME280;51019;46.090;6.350;2024-02-15T09:32:53;96883.75;;;9.69;100.00
64610;BME280;51019;46.090;6.350;2024-02-15T09:35:22;96946.84;;;10.17;100.00
64610;BME280;51019;46.090;6.350;2024-02-15T09:37:51;96949.13;;;10.52;100.00
64610;BME280;51019;46.090;6.350;2024-02-15T09:40:20;96947.84;;;10.37;100.00
64610;BME280;51019;46.090;6.350;2024-02-15T09:42:52;96868.34;;;10.76;100.00
64610;BME280;51019;46.090;6.350;2024-02-15T09:45:19;96933.31;;;12.36;89.04
64610;BME280;51019;46.090;6.350;2024-02-15T09:47:46;96933.84;;;12.77;84.81
64610;BME280;51019;46.090;6.350;2024-02-15T09:50:16;96932.56;;;12.17;87.36
64610;BME280;51019;46.090;6.350;2024-02-15T09:52:45;96884.47;;;12.07;86.85
64610;BME280;51019;46.090;6.350;2024-02-15T09:55:15;96930.28;;;12.31;83.40
64610;BME280;51019;46.090;6.350;2024-02-15T09:57:44;96937.09;;;12.61;79.81
64610;BME280;51019;46.090;6.350;2024-02-15T10:00:12;96878.88;;;12.29;78.80
64610;BME280;51019;46.090;6.350;2024-02-15T10:02:42;96853.97;;;13.93;72.04
64610;BME280;51019;46.090;6.350;2024-02-15T10:05:10;96911.97;;;15.45;67.14
64610;BME280;51019;46.090;6.350;2024-02-15T10:07:38;96912.06;;;15.11;68.33
64610;BME280;51019;46.090;6.350;2024-02-15T10:10:25;96915.91;;;14.74;69.89
64610;BME280;51019;46.090;6.350;2024-02-15T10:12:53;96911.63;;;14.81;69.48
64610;BME280;51019;46.090;6.350;2024-02-15T10:15:31;96888.88;;;14.46;69.80
64610;BME280;51019;46.090;6.350;2024-02-15T10:18:00;96909.97;;;14.80;67.67
64610;BME280;51019;46.090;6.350;2024-02-15T10:20:28;96910.16;;;15.53;65.29
64610;BME280;51019;46.090;6.350;2024-02-15T10:23:09;96907.47;;;14.71;69.22
64610;BME280;51019;46.090;6.350;2024-02-15T10:25:39;96902.47;;;14.34;67.06
64610;BME280;51019;46.090;6.350;2024-02-15T10:28:07;96817.13;;;12.78;71.74
64610;BME280;51019;46.090;6.350;2024-02-15T10:30:35;96885.06;;;13.63;74.38
64610;BME280;51019;46.090;6.350;2024-02-15T10:33:03;96888.91;;;13.51;76.00
64610;BME280;51019;46.090;6.350;2024-02-15T10:35:31;96890.25;;;13.55;77.89
64610;BME280;51019;46.090;6.350;2024-02-15T10:38:09;96858.97;;;13.52;75.75
64610;BME280;51019;46.090;6.350;2024-02-15T10:40:39;96877.19;;;12.83;81.40
64610;BME280;51019;46.090;6.350;2024-02-15T10:43:07;96869.47;;;13.70;77.51
64610;BME280;51019;46.090;6.350;2024-02-15T10:45:37;96868.59;;;13.61;77.42
64610;BME280;51019;46.090;6.350;2024-02-15T10:48:07;96843.09;;;13.44;75.35
64610;BME280;51019;46.090;6.350;2024-02-15T10:50:34;96861.31;;;13.81;75.99
64610;BME280;51019;46.090;6.350;2024-02-15T10:53:10;96791.06;;;13.38;75.67
64610;BME280;51019;46.090;6.350;2024-02-15T10:55:48;96851.28;;;13.59;74.41
64610;BME280;51019;46.090;6.350;2024-02-15T10:58:20;96766.06;;;12.18;77.24
64610;BME280;51019;46.090;6.350;2024-02-15T11:00:49;96802.94;;;11.89;80.45
64610;BME280;51019;46.090;6.350;2024-02-15T11:03:22;96824.63;;;13.18;77.01
64610;BME280;51019;46.090;6.350;2024-02-15T11:05:52;96843.81;;;13.72;74.08
64610;BME280;51019;46.090;6.350;2024-02-15T11:08:21;96833.44;;;14.30;71.28
64610;BME280;51019;46.090;6.350;2024-02-15T11:10:50;96829.84;;;14.05;71.30
64610;BME280;51019;46.090;6.350;2024-02-15T11:13:19;96804.91;;;14.34;70.05
64610;BME280;51019;46.090;6.350;2024-02-15T11:15:46;96736.97;;;14.62;64.45
64610;BME280;51019;46.090;6.350;2024-02-15T11:18:42;96807.72;;;14.74;67.02
64610;BME280;51019;46.090;6.350;2024-02-15T11:21:11;96809.25;;;15.74;64.72
64610;BME280;51019;46.090;6.350;2024-02-15T11:23:38;96810.06;;;16.46;60.36
64610;BME280;51019;46.090;6.350;2024-02-15T11:26:10;96801.81;;;16.72;56.37
64610;BME280;51019;46.090;6.350;2024-02-15T11:28:57;96789.69;;;16.08;54.76
64610;BME280;51019;46.090;6.350;2024-02-15T11:31:53;96796.19;;;15.81;56.68
64610;BME280;51019;46.090;6.350;2024-02-15T11:34:42;96784.41;;;16.08;58.23
64610;BME280;51019;46.090;6.350;2024-02-15T11:40:12;96775.34;;;16.41;57.24
64610;BME280;51019;46.090;6.350;2024-02-15T11:42:41;96778.44;;;16.53;57.58
64610;BME280;51019;46.090;6.350;2024-02-15T11:45:08;96766.41;;;16.81;57.51
64610;BME280;51019;46.090;6.350;2024-02-15T11:47:37;96747.94;;;17.86;53.01
64610;BME280;51019;46.090;6.350;2024-02-15T11:50:07;96635.88;;;18.28;48.67
64610;BME280;51019;46.090;6.350;2024-02-15T11:52:38;96670.22;;;18.14;50.90
64610;BME280;51019;46.090;6.350;2024-02-15T11:55:07;96748.78;;;18.66;50.08
64610;BME280;51019;46.090;6.350;2024-02-15T11:57:36;96748.41;;;19.33;47.36
64610;BME280;51019;46.090;6.350;2024-02-15T12:00:30;96712.84;;;18.49;50.36
64610;BME280;51019;46.090;6.350;2024-02-15T12:03:26;96734.91;;;19.56;47.72
64610;BME280;51019;46.090;6.350;2024-02-15T12:06:10;96729.81;;;18.19;50.86
64610;BME280;51019;46.090;6.350;2024-02-15T12:08:55;96706.84;;;17.37;52.62
64610;BME280;51019;46.090;6.350;2024-02-15T12:11:40;96716.00;;;18.38;50.79
64610;BME280;51019;46.090;6.350;2024-02-15T12:14:25;96712.31;;;17.36;50.74
64610;BME280;51019;46.090;6.350;2024-02-15T12:17:12;96711.84;;;16.41;54.49
64610;BME280;51019;46.090;6.350;2024-02-15T12:19:57;96709.44;;;16.31;56.51
64610;BME280;51019;46.090;6.350;2024-02-15T12:22:28;96706.78;;;15.92;59.20
64610;BME280;51019;46.090;6.350;2024-02-15T12:24:58;96712.00;;;15.70;58.87
64610;BME280;51019;46.090;6.350;2024-02-15T12:27:26;96690.78;;;15.14;61.99
64610;BME280;51019;46.090;6.350;2024-02-15T12:29:55;96719.69;;;15.00;62.03
64610;BME280;51019;46.090;6.350;2024-02-15T12:32:26;96707.31;;;15.00;61.92
64610;BME280;51019;46.090;6.350;2024-02-15T12:35:01;96725.63;;;14.77;65.92
64610;BME280;51019;46.090;6.350;2024-02-15T12:37:35;96712.19;;;14.46;65.37
64610;BME280;51019;46.090;6.350;2024-02-15T12:40:10;96719.47;;;15.58;59.50
64610;BME280;51019;46.090;6.350;2024-02-15T12:42:41;96715.59;;;15.85;58.35
64610;BME280;51019;46.090;6.350;2024-02-15T12:45:15;96711.94;;;14.98;63.30
64610;BME280;51019;46.090;6.350;2024-02-15T12:47:48;96633.72;;;15.05;63.74
64610;BME280;51019;46.090;6.350;2024-02-15T12:50:16;96605.63;;;15.76;60.82
64610;BME280;51019;46.090;6.350;2024-02-15T12:52:46;96707.84;;;16.99;58.63
64610;BME280;51019;46.090;6.350;2024-02-15T12:55:15;96650.66;;;17.57;55.21
64610;BME280;51019;46.090;6.350;2024-02-15T12:57:46;96690.78;;;18.12;54.84
64610;BME280;51019;46.090;6.350;2024-02-15T13:00:17;96695.56;;;16.83;56.82
64610;BME280;51019;46.090;6.350;2024-02-15T13:02:48;96584.44;;;15.45;61.52
64610;BME280;51019;46.090;6.350;2024-02-15T13:05:15;96673.31;;;16.47;59.04
64610;BME280;51019;46.090;6.350;2024-02-15T13:07:45;96680.44;;;16.92;56.57
64610;BME280;51019;46.090;6.350;2024-02-15T13:10:13;96683.28;;;16.59;59.07
64610;BME280;51019;46.090;6.350;2024-02-15T13:12:41;96690.50;;;15.81;59.47
64610;BME280;51019;46.090;6.350;2024-02-15T13:15:10;96573.66;;;15.15;61.45